sensor_id;sensor_type;location;lat;lon;timestamp;P1;durP1;ratioP1;P2;durP2;ratioP2
16979;SDS011;42288;52.182;21.156;2023-05-28T00:01:54;10.83;;;5.40;;
16979;SDS011;42288;52.182;21.156;2023-05-28T00:04:20;11.73;;;6.63;;
16979;SDS011;42288;52.182;21.156;2023-05-28T00:06:46;11.90;;;5.80;;
16979;SDS011;42288;52.182;21.156;2023-05-28T00:09:15;14.77;;;5.77;;
16979;SDS011;42288;52.182;21.156;2023-05-28T00:11:41;12.07;;;6.10;;
16979;SDS011;42288;52.182;21.156;2023-05-28T00:14:07;10.77;;;5.87;;
16979;SDS011;42288;52.182;21.156;2023-05-28T00:16:33;11.93;;;5.80;;
16979;SDS011;42288;52.182;21.156;2023-05-28T00:19:01;11.17;;;6.10;;
16979;SDS011;42288;52.182;21.156;2023-05-28T00:21:27;13.47;;;6.40;;
16979;SDS011;42288;52.182;21.156;2023-05-28T00:23:52;12.83;;;5.70;;
16979;SDS011;42288;52.182;21.156;2023-05-28T00:26:18;13.60;;;6.23;;
16979;SDS011;42288;52.182;21.156;2023-05-28T00:28:43;15.47;;;6.07;;
16979;SDS011;42288;52.182;21.156;2023-05-28T00:31:09;14.23;;;6.13;;
16979;SDS011;42288;52.182;21.156;2023-05-28T00:33:35;10.83;;;5.57;;
16979;SDS011;42288;52.182;21.156;2023-05-28T00:36:01;10.97;;;5.40;;
16979;SDS011;42288;52.182;21.156;2023-05-28T00:38:26;14.97;;;5.30;;
16979;SDS011;42288;52.182;21.156;2023-05-28T00:40:52;10.20;;;5.70;;
16979;SDS011;42288;52.182;21.156;2023-05-28T00:43:19;14.77;;;5.67;;
16979;SDS011;42288;52.182;21.156;2023-05-28T00:45:46;14.90;;;5.23;;
16979;SDS011;42288;52.182;21.156;2023-05-28T00:48:16;8.97;;;5.27;;
16979;SDS011;42288;52.182;21.156;2023-05-28T00:50:42;10.67;;;4.83;;
16979;SDS011;42288;52.182;21.156;2023-05-28T00:53:08;12.27;;;4.80;;
16979;SDS011;42288;52.182;21.156;2023-05-28T00:55:34;15.07;;;5.70;;
16979;SDS011;42288;52.182;21.156;2023-05-28T00:58:00;10.03;;;4.90;;
16979;SDS011;42288;52.182;21.156;2023-05-28T01:00:33;13.23;;;5.40;;
16979;SDS011;42288;52.182;21.156;2023-05-28T01:03:01;9.90;;;4.80;;
16979;SDS011;42288;52.182;21.156;2023-05-28T01:05:27;10.40;;;4.50;;
16979;SDS011;42288;52.182;21.156;2023-05-28T01:07:56;9.97;;;4.87;;
16979;SDS011;42288;52.182;21.156;2023-05-28T01:10:24;11.97;;;5.40;;
16979;SDS011;42288;52.182;21.156;2023-05-28T01:12:49;8.23;;;4.73;;
16979;SDS011;42288;52.182;21.156;2023-05-28T01:15:16;12.80;;;5.23;;
16979;SDS011;42288;52.182;21.156;2023-05-28T01:17:42;10.83;;;5.17;;
16979;SDS011;42288;52.182;21.156;2023-05-28T01:20:09;11.77;;;5.03;;
16979;SDS011;42288;52.182;21.156;2023-05-28T01:22:38;8.33;;;4.70;;
16979;SDS011;42288;52.182;21.156;2023-05-28T01:25:06;12.23;;;4.73;;
16979;SDS011;42288;52.182;21.156;2023-05-28T01:27:35;10.17;;;4.37;;
16979;SDS011;42288;52.182;21.156;2023-05-28T01:30:05;9.70;;;4.90;;
16979;SDS011;42288;52.182;21.156;2023-05-28T01:32:38;10.33;;;5.03;;
16979;SDS011;42288;52.182;21.156;2023-05-28T01:35:04;10.63;;;4.90;;
16979;SDS011;42288;52.182;21.156;2023-05-28T01:37:34;10.83;;;4.90;;
16979;SDS011;42288;52.182;21.156;2023-05-28T01:40:04;11.30;;;5.00;;
16979;SDS011;42288;52.182;21.156;2023-05-28T01:42:31;9.43;;;4.70;;
16979;SDS011;42288;52.182;21.156;2023-05-28T01:44:59;9.70;;;4.97;;
16979;SDS011;42288;52.182;21.156;2023-05-28T01:47:26;11.13;;;5.60;;
16979;SDS011;42288;52.182;21.156;2023-05-28T01:49:52;11.97;;;5.97;;
16979;SDS011;42288;52.182;21.156;2023-05-28T01:52:18;9.03;;;5.57;;
16979;SDS011;42288;52.182;21.156;2023-05-28T01:54:43;11.73;;;5.57;;
16979;SDS011;42288;52.182;21.156;2023-05-28T01:57:09;9.70;;;5.27;;
16979;SDS011;42288;52.182;21.156;2023-05-28T01:59:35;11.40;;;5.80;;
16979;SDS011;42288;52.182;21.156;2023-05-28T02:02:01;11.03;;;5.70;;
16979;SDS011;42288;52.182;21.156;2023-05-28T02:04:26;10.80;;;5.77;;
16979;SDS011;42288;52.182;21.156;2023-05-28T02:06:52;12.50;;;5.87;;
16979;SDS011;42288;52.182;21.156;2023-05-28T02:09:17;10.90;;;5.83;;
16979;SDS011;42288;52.182;21.156;2023-05-28T02:11:43;10.10;;;5.27;;
16979;SDS011;42288;52.182;21.156;2023-05-28T02:14:09;10.67;;;5.53;;
16979;SDS011;42288;52.182;21.156;2023-05-28T02:16:41;11.73;;;5.83;;
16979;SDS011;42288;52.182;21.156;2023-05-28T02:19:07;11.40;;;6.00;;
16979;SDS011;42288;52.182;21.156;2023-05-28T02:21:34;11.07;;;4.90;;
16979;SDS011;42288;52.182;21.156;2023-05-28T02:24:01;14.00;;;5.57;;
16979;SDS011;42288;52.182;21.156;2023-05-28T02:26:26;10.23;;;4.97;;
16979;SDS011;42288;52.182;21.156;2023-05-28T02:28:52;12.80;;;5.90;;
16979;SDS011;42288;52.182;21.156;2023-05-28T02:31:18;9.77;;;5.30;;
16979;SDS011;42288;52.182;21.156;2023-05-28T02:33:44;12.30;;;5.50;;
16979;SDS011;42288;52.182;21.156;2023-05-28T02:36:09;9.50;;;5.13;;
16979;SDS011;42288;52.182;21.156;2023-05-28T02:38:39;12.43;;;6.03;;
16979;SDS011;42288;52.182;21.156;2023-05-28T02:41:05;8.83;;;5.03;;
16979;SDS011;42288;52.182;21.156;2023-05-28T02:43:31;10.83;;;5.77;;
16979;SDS011;42288;52.182;21.156;2023-05-28T02:45:57;12.00;;;5.30;;
16979;SDS011;42288;52.182;21.156;2023-05-28T02:48:22;9.53;;;5.30;;
16979;SDS011;42288;52.182;21.156;2023-05-28T02:50:48;10.30;;;4.83;;
16979;SDS011;42288;52.182;21.156;2023-05-28T02:53:14;10.90;;;5.33;;
16979;SDS011;42288;52.182;21.156;2023-05-28T02:55:39;9.07;;;4.83;;
16979;SDS011;42288;52.182;21.156;2023-05-28T02:58:05;10.17;;;4.73;;
16979;SDS011;42288;52.182;21.156;2023-05-28T03:00:30;13.20;;;6.17;;
16979;SDS011;42288;52.182;21.156;2023-05-28T03:02:56;8.63;;;4.40;;
16979;SDS011;42288;52.182;21.156;2023-05-28T03:05:22;11.97;;;4.70;;
16979;SDS011;42288;52.182;21.156;2023-05-28T03:07:48;8.03;;;4.57;;
16979;SDS011;42288;52.182;21.156;2023-05-28T03:10:14;12.10;;;4.57;;
16979;SDS011;42288;52.182;21.156;2023-05-28T03:12:40;10.17;;;5.23;;
16979;SDS011;42288;52.182;21.156;2023-05-28T03:15:06;8.23;;;4.70;;
16979;SDS011;42288;52.182;21.156;2023-05-28T03:17:32;8.70;;;4.83;;
16979;SDS011;42288;52.182;21.156;2023-05-28T03:19:57;9.17;;;4.73;;
16979;SDS011;42288;52.182;21.156;2023-05-28T03:22:23;11.23;;;4.90;;
16979;SDS011;42288;52.182;21.156;2023-05-28T03:24:48;10.13;;;5.10;;
16979;SDS011;42288;52.182;21.156;2023-05-28T03:27:14;9.43;;;4.83;;
16979;SDS011;42288;52.182;21.156;2023-05-28T03:29:40;12.03;;;5.60;;
16979;SDS011;42288;52.182;21.156;2023-05-28T03:32:05;9.13;;;4.97;;
16979;SDS011;42288;52.182;21.156;2023-05-28T03:34:31;9.70;;;5.13;;
16979;SDS011;42288;52.182;21.156;2023-05-28T03:36:58;11.20;;;4.60;;
16979;SDS011;42288;52.182;21.156;2023-05-28T03:39:24;11.13;;;4.80;;
16979;SDS011;42288;52.182;21.156;2023-05-28T03:41:50;8.60;;;4.27;;
16979;SDS011;42288;52.182;21.156;2023-05-28T03:44:15;8.67;;;4.50;;
16979;SDS011;42288;52.182;21.156;2023-05-28T03:46:42;7.10;;;4.07;;
16979;SDS011;42288;52.182;21.156;2023-05-28T03:49:08;11.03;;;4.87;;
16979;SDS011;42288;52.182;21.156;2023-05-28T03:51:33;7.37;;;4.50;;
16979;SDS011;42288;52.182;21.156;2023-05-28T03:53:59;9.20;;;4.40;;
16979;SDS011;42288;52.182;21.156;2023-05-28T03:56:25;7.10;;;4.27;;
16979;SDS011;42288;52.182;21.156;2023-05-28T03:58:51;9.60;;;4.67;;
16979;SDS011;42288;52.182;21.156;2023-05-28T04:01:17;9.07;;;4.00;;
16979;SDS011;42288;52.182;21.156;2023-05-28T04:03:43;9.27;;;4.27;;
16979;SDS011;42288;52.182;21.156;2023-05-28T04:06:09;10.30;;;3.77;;
16979;SDS011;42288;52.182;21.156;2023-05-28T04:08:35;9.40;;;3.90;;
16979;SDS011;42288;52.182;21.156;2023-05-28T04:11:01;8.73;;;3.73;;
16979;SDS011;42288;52.182;21.156;2023-05-28T04:13:26;7.90;;;3.47;;
16979;SDS011;42288;52.182;21.156;2023-05-28T04:15:52;9.40;;;3.87;;
16979;SDS011;42288;52.182;21.156;2023-05-28T04:18:17;8.07;;;3.70;;
16979;SDS011;42288;52.182;21.156;2023-05-28T04:20:43;10.93;;;3.77;;
16979;SDS011;42288;52.182;21.156;2023-05-28T04:23:09;5.63;;;3.30;;
16979;SDS011;42288;52.182;21.156;2023-05-28T04:25:35;9.83;;;3.23;;
16979;SDS011;42288;52.182;21.156;2023-05-28T04:28:02;6.73;;;3.50;;
16979;SDS011;42288;52.182;21.156;2023-05-28T04:30:27;6.50;;;3.20;;
16979;SDS011;42288;52.182;21.156;2023-05-28T04:32:53;9.17;;;3.33;;
16979;SDS011;42288;52.182;21.156;2023-05-28T04:35:18;7.10;;;3.73;;
16979;SDS011;42288;52.182;21.156;2023-05-28T04:37:44;7.53;;;3.43;;
16979;SDS011;42288;52.182;21.156;2023-05-28T04:40:10;7.27;;;3.00;;
16979;SDS011;42288;52.182;21.156;2023-05-28T04:42:39;4.10;;;2.47;;
16979;SDS011;42288;52.182;21.156;2023-05-28T04:45:08;7.73;;;2.90;;
16979;SDS011;42288;52.182;21.156;2023-05-28T04:47:35;9.80;;;3.33;;
16979;SDS011;42288;52.182;21.156;2023-05-28T04:50:01;6.73;;;3.60;;
16979;SDS011;42288;52.182;21.156;2023-05-28T04:52:31;7.53;;;2.80;;
16979;SDS011;42288;52.182;21.156;2023-05-28T04:55:00;8.67;;;3.07;;
16979;SDS011;42288;52.182;21.156;2023-05-28T04:57:26;5.00;;;2.60;;
16979;SDS011;42288;52.182;21.156;2023-05-28T04:59:52;6.00;;;2.73;;
16979;SDS011;42288;52.182;21.156;2023-05-28T05:02:18;5.03;;;2.80;;
16979;SDS011;42288;52.182;21.156;2023-05-28T05:04:44;7.10;;;2.67;;
16979;SDS011;42288;52.182;21.156;2023-05-28T05:07:11;9.57;;;2.93;;
16979;SDS011;42288;52.182;21.156;2023-05-28T05:09:37;5.80;;;2.40;;
16979;SDS011;42288;52.182;21.156;2023-05-28T05:12:03;6.03;;;2.30;;
16979;SDS011;42288;52.182;21.156;2023-05-28T05:14:28;6.80;;;1.87;;
16979;SDS011;42288;52.182;21.156;2023-05-28T05:16:54;4.83;;;2.33;;
16979;SDS011;42288;52.182;21.156;2023-05-28T05:19:20;5.43;;;1.80;;
16979;SDS011;42288;52.182;21.156;2023-05-28T05:21:45;3.50;;;2.10;;
16979;SDS011;42288;52.182;21.156;2023-05-28T05:24:11;4.27;;;1.90;;
16979;SDS011;42288;52.182;21.156;2023-05-28T05:26:37;4.90;;;2.37;;
16979;SDS011;42288;52.182;21.156;2023-05-28T05:29:02;6.97;;;2.00;;
16979;SDS011;42288;52.182;21.156;2023-05-28T05:31:28;10.37;;;2.27;;
16979;SDS011;42288;52.182;21.156;2023-05-28T05:33:54;7.10;;;1.90;;
16979;SDS011;42288;52.182;21.156;2023-05-28T05:36:19;5.97;;;1.80;;
16979;SDS011;42288;52.182;21.156;2023-05-28T05:38:45;9.17;;;1.90;;
16979;SDS011;42288;52.182;21.156;2023-05-28T05:41:11;5.27;;;1.93;;
16979;SDS011;42288;52.182;21.156;2023-05-28T05:43:37;6.70;;;1.77;;
16979;SDS011;42288;52.182;21.156;2023-05-28T05:46:03;3.00;;;1.73;;
16979;SDS011;42288;52.182;21.156;2023-05-28T05:48:28;3.57;;;1.83;;
16979;SDS011;42288;52.182;21.156;2023-05-28T05:50:54;4.30;;;1.70;;
16979;SDS011;42288;52.182;21.156;2023-05-28T05:53:20;4.77;;;1.77;;
16979;SDS011;42288;52.182;21.156;2023-05-28T05:55:47;4.50;;;1.53;;
16979;SDS011;42288;52.182;21.156;2023-05-28T05:58:13;5.57;;;1.80;;
16979;SDS011;42288;52.182;21.156;2023-05-28T06:00:39;7.77;;;1.97;;
16979;SDS011;42288;52.182;21.156;2023-05-28T06:03:06;6.37;;;1.77;;
16979;SDS011;42288;52.182;21.156;2023-05-28T06:05:34;7.60;;;1.87;;
16979;SDS011;42288;52.182;21.156;2023-05-28T06:08:00;4.20;;;1.80;;
16979;SDS011;42288;52.182;21.156;2023-05-28T06:10:28;6.13;;;1.80;;
16979;SDS011;42288;52.182;21.156;2023-05-28T06:12:54;3.17;;;1.67;;
16979;SDS011;42288;52.182;21.156;2023-05-28T06:15:20;13.07;;;2.13;;
16979;SDS011;42288;52.182;21.156;2023-05-28T06:17:46;10.50;;;1.83;;
16979;SDS011;42288;52.182;21.156;2023-05-28T06:20:12;8.17;;;1.90;;
16979;SDS011;42288;52.182;21.156;2023-05-28T06:22:39;6.47;;;1.67;;
16979;SDS011;42288;52.182;21.156;2023-05-28T06:25:05;5.63;;;1.90;;
16979;SDS011;42288;52.182;21.156;2023-05-28T06:27:32;5.37;;;1.90;;
16979;SDS011;42288;52.182;21.156;2023-05-28T06:29:58;4.77;;;1.70;;
16979;SDS011;42288;52.182;21.156;2023-05-28T06:32:24;4.13;;;1.43;;
16979;SDS011;42288;52.182;21.156;2023-05-28T06:34:49;3.63;;;1.50;;
16979;SDS011;42288;52.182;21.156;2023-05-28T06:37:15;4.93;;;1.53;;
16979;SDS011;42288;52.182;21.156;2023-05-28T06:39:41;5.57;;;1.63;;
16979;SDS011;42288;52.182;21.156;2023-05-28T06:42:06;2.67;;;1.33;;
16979;SDS011;42288;52.182;21.156;2023-05-28T06:44:32;11.20;;;1.63;;
16979;SDS011;42288;52.182;21.156;2023-05-28T06:46:58;2.97;;;1.53;;
16979;SDS011;42288;52.182;21.156;2023-05-28T06:49:24;5.03;;;1.43;;
16979;SDS011;42288;52.182;21.156;2023-05-28T06:51:50;5.63;;;2.00;;
16979;SDS011;42288;52.182;21.156;2023-05-28T06:54:16;4.53;;;1.50;;
16979;SDS011;42288;52.182;21.156;2023-05-28T06:56:42;7.27;;;1.67;;
16979;SDS011;42288;52.182;21.156;2023-05-28T06:59:07;5.50;;;1.30;;
16979;SDS011;42288;52.182;21.156;2023-05-28T07:01:33;9.73;;;1.27;;
16979;SDS011;42288;52.182;21.156;2023-05-28T07:03:58;4.13;;;1.47;;
16979;SDS011;42288;52.182;21.156;2023-05-28T07:06:24;4.20;;;1.20;;
16979;SDS011;42288;52.182;21.156;2023-05-28T07:08:50;2.90;;;1.40;;
16979;SDS011;42288;52.182;21.156;2023-05-28T07:11:15;6.20;;;1.30;;
16979;SDS011;42288;52.182;21.156;2023-05-28T07:13:41;2.77;;;1.37;;
16979;SDS011;42288;52.182;21.156;2023-05-28T07:16:07;3.53;;;1.00;;
16979;SDS011;42288;52.182;21.156;2023-05-28T07:18:33;3.87;;;1.30;;
16979;SDS011;42288;52.182;21.156;2023-05-28T07:20:58;4.63;;;1.60;;
16979;SDS011;42288;52.182;21.156;2023-05-28T07:23:24;6.37;;;1.20;;
16979;SDS011;42288;52.182;21.156;2023-05-28T07:25:50;2.03;;;1.10;;
16979;SDS011;42288;52.182;21.156;2023-05-28T07:28:16;5.90;;;1.50;;
16979;SDS011;42288;52.182;21.156;2023-05-28T07:30:42;3.47;;;1.10;;
16979;SDS011;42288;52.182;21.156;2023-05-28T07:33:07;7.00;;;1.33;;
16979;SDS011;42288;52.182;21.156;2023-05-28T07:35:33;9.83;;;1.23;;
16979;SDS011;42288;52.182;21.156;2023-05-28T07:38:01;2.97;;;1.37;;
16979;SDS011;42288;52.182;21.156;2023-05-28T07:40:27;3.20;;;1.23;;
16979;SDS011;42288;52.182;21.156;2023-05-28T07:42:52;6.90;;;1.20;;
16979;SDS011;42288;52.182;21.156;2023-05-28T07:45:18;4.20;;;1.27;;
16979;SDS011;42288;52.182;21.156;2023-05-28T07:47:44;7.73;;;1.57;;
16979;SDS011;42288;52.182;21.156;2023-05-28T07:50:10;6.80;;;1.70;;
16979;SDS011;42288;52.182;21.156;2023-05-28T07:52:36;8.73;;;1.00;;
16979;SDS011;42288;52.182;21.156;2023-05-28T07:55:02;6.17;;;1.30;;
16979;SDS011;42288;52.182;21.156;2023-05-28T07:57:28;5.87;;;1.40;;
16979;SDS011;42288;52.182;21.156;2023-05-28T07:59:54;5.97;;;1.10;;
16979;SDS011;42288;52.182;21.156;2023-05-28T08:02:20;5.37;;;1.13;;
16979;SDS011;42288;52.182;21.156;2023-05-28T08:04:47;6.00;;;1.47;;
16979;SDS011;42288;52.182;21.156;2023-05-28T08:07:14;3.87;;;1.20;;
16979;SDS011;42288;52.182;21.156;2023-05-28T08:09:39;13.73;;;1.70;;
16979;SDS011;42288;52.182;21.156;2023-05-28T08:12:06;5.93;;;1.37;;
16979;SDS011;42288;52.182;21.156;2023-05-28T08:14:33;5.37;;;1.57;;
16979;SDS011;42288;52.182;21.156;2023-05-28T08:16:58;5.00;;;1.67;;
16979;SDS011;42288;52.182;21.156;2023-05-28T08:19:24;3.77;;;1.30;;
16979;SDS011;42288;52.182;21.156;2023-05-28T08:21:51;5.07;;;1.40;;
16979;SDS011;42288;52.182;21.156;2023-05-28T08:24:17;4.70;;;1.57;;
16979;SDS011;42288;52.182;21.156;2023-05-28T08:26:43;5.00;;;1.43;;
16979;SDS011;42288;52.182;21.156;2023-05-28T08:29:09;3.60;;;1.33;;
16979;SDS011;42288;52.182;21.156;2023-05-28T08:31:35;5.07;;;1.20;;
16979;SDS011;42288;52.182;21.156;2023-05-28T08:34:01;7.60;;;1.23;;
16979;SDS011;42288;52.182;21.156;2023-05-28T08:36:26;7.90;;;1.77;;
16979;SDS011;42288;52.182;21.156;2023-05-28T08:38:52;8.77;;;1.70;;
16979;SDS011;42288;52.182;21.156;2023-05-28T08:41:19;3.80;;;1.50;;
16979;SDS011;42288;52.182;21.156;2023-05-28T08:43:46;3.47;;;1.47;;
16979;SDS011;42288;52.182;21.156;2023-05-28T08:46:12;3.83;;;1.40;;
16979;SDS011;42288;52.182;21.156;2023-05-28T08:48:39;4.43;;;1.50;;
16979;SDS011;42288;52.182;21.156;2023-05-28T08:51:07;5.07;;;1.40;;
16979;SDS011;42288;52.182;21.156;2023-05-28T08:53:36;4.63;;;1.70;;
16979;SDS011;42288;52.182;21.156;2023-05-28T08:56:07;2.40;;;1.40;;
16979;SDS011;42288;52.182;21.156;2023-05-28T08:58:34;11.53;;;1.60;;
16979;SDS011;42288;52.182;21.156;2023-05-28T09:01:06;5.07;;;1.50;;
16979;SDS011;42288;52.182;21.156;2023-05-28T09:03:33;3.47;;;1.40;;
16979;SDS011;42288;52.182;21.156;2023-05-28T09:06:00;2.03;;;1.40;;
16979;SDS011;42288;52.182;21.156;2023-05-28T09:08:26;3.50;;;1.50;;
16979;SDS011;42288;52.182;21.156;2023-05-28T09:10:54;9.20;;;1.80;;
16979;SDS011;42288;52.182;21.156;2023-05-28T09:13:21;6.37;;;1.60;;
16979;SDS011;42288;52.182;21.156;2023-05-28T09:15:50;5.30;;;1.37;;
16979;SDS011;42288;52.182;21.156;2023-05-28T09:18:20;3.80;;;1.80;;
16979;SDS011;42288;52.182;21.156;2023-05-28T09:20:46;5.57;;;1.73;;
16979;SDS011;42288;52.182;21.156;2023-05-28T09:23:18;9.13;;;1.90;;
16979;SDS011;42288;52.182;21.156;2023-05-28T09:25:46;5.07;;;1.60;;
16979;SDS011;42288;52.182;21.156;2023-05-28T09:28:12;4.07;;;1.70;;
16979;SDS011;42288;52.182;21.156;2023-05-28T09:30:41;3.83;;;1.40;;
16979;SDS011;42288;52.182;21.156;2023-05-28T09:33:08;6.00;;;1.73;;
16979;SDS011;42288;52.182;21.156;2023-05-28T09:35:34;3.00;;;1.40;;
16979;SDS011;42288;52.182;21.156;2023-05-28T09:38:04;6.17;;;1.80;;
16979;SDS011;42288;52.182;21.156;2023-05-28T09:40:39;2.70;;;1.60;;
16979;SDS011;42288;52.182;21.156;2023-05-28T09:43:06;3.97;;;1.60;;
16979;SDS011;42288;52.182;21.156;2023-05-28T09:45:32;3.57;;;1.33;;
16979;SDS011;42288;52.182;21.156;2023-05-28T09:47:59;5.93;;;1.30;;
16979;SDS011;42288;52.182;21.156;2023-05-28T09:50:25;4.60;;;1.50;;
16979;SDS011;42288;52.182;21.156;2023-05-28T09:52:52;3.63;;;1.53;;
16979;SDS011;42288;52.182;21.156;2023-05-28T09:55:22;6.47;;;1.40;;
16979;SDS011;42288;52.182;21.156;2023-05-28T09:58:00;6.27;;;1.43;;
16979;SDS011;42288;52.182;21.156;2023-05-28T10:00:51;3.07;;;1.20;;
16979;SDS011;42288;52.182;21.156;2023-05-28T10:05:48;7.67;;;1.30;;
16979;SDS011;42288;52.182;21.156;2023-05-28T10:08:17;3.57;;;1.40;;
16979;SDS011;42288;52.182;21.156;2023-05-28T10:10:49;3.73;;;1.30;;
16979;SDS011;42288;52.182;21.156;2023-05-28T10:13:17;3.93;;;1.60;;
16979;SDS011;42288;52.182;21.156;2023-05-28T10:15:43;2.37;;;1.30;;
16979;SDS011;42288;52.182;21.156;2023-05-28T10:18:10;4.90;;;1.50;;
16979;SDS011;42288;52.182;21.156;2023-05-28T10:20:39;1.30;;;0.90;;
16979;SDS011;42288;52.182;21.156;2023-05-28T10:23:05;4.77;;;1.40;;
16979;SDS011;42288;52.182;21.156;2023-05-28T10:25:32;6.73;;;1.40;;
16979;SDS011;42288;52.182;21.156;2023-05-28T10:27:59;9.40;;;1.50;;
16979;SDS011;42288;52.182;21.156;2023-05-28T10:30:35;3.50;;;1.20;;
16979;SDS011;42288;52.182;21.156;2023-05-28T10:33:06;4.07;;;1.40;;
16979;SDS011;42288;52.182;21.156;2023-05-28T10:35:34;5.27;;;1.43;;
16979;SDS011;42288;52.182;21.156;2023-05-28T10:38:07;4.87;;;1.67;;
16979;SDS011;42288;52.182;21.156;2023-05-28T10:40:33;7.83;;;1.73;;
16979;SDS011;42288;52.182;21.156;2023-05-28T10:43:00;3.80;;;1.47;;
16979;SDS011;42288;52.182;21.156;2023-05-28T10:45:35;4.50;;;1.27;;
16979;SDS011;42288;52.182;21.156;2023-05-28T10:48:02;3.17;;;1.20;;
16979;SDS011;42288;52.182;21.156;2023-05-28T10:50:27;5.03;;;1.60;;
16979;SDS011;42288;52.182;21.156;2023-05-28T10:53:06;23.45;;;3.08;;
16979;SDS011;42288;52.182;21.156;2023-05-28T10:55:52;7.53;;;1.30;;
16979;SDS011;42288;52.182;21.156;2023-05-28T10:58:51;2.80;;;1.20;;
16979;SDS011;42288;52.182;21.156;2023-05-28T11:06:08;3.92;;;1.20;;
16979;SDS011;42288;52.182;21.156;2023-05-28T11:08:40;6.70;;;1.30;;
16979;SDS011;42288;52.182;21.156;2023-05-28T11:11:13;6.55;;;1.40;;
16979;SDS011;42288;52.182;21.156;2023-05-28T11:13:41;6.40;;;1.23;;
16979;SDS011;42288;52.182;21.156;2023-05-28T11:16:11;4.60;;;1.50;;
16979;SDS011;42288;52.182;21.156;2023-05-28T11:18:39;5.30;;;1.20;;
16979;SDS011;42288;52.182;21.156;2023-05-28T11:21:23;5.10;;;1.33;;
16979;SDS011;42288;52.182;21.156;2023-05-28T11:23:59;3.72;;;1.30;;
16979;SDS011;42288;52.182;21.156;2023-05-28T11:26:25;7.20;;;1.42;;
16979;SDS011;42288;52.182;21.156;2023-05-28T11:28:52;3.08;;;1.17;;
16979;SDS011;42288;52.182;21.156;2023-05-28T11:31:18;16.42;;;5.80;;
16979;SDS011;42288;52.182;21.156;2023-05-28T11:33:47;6.35;;;2.47;;
16979;SDS011;42288;52.182;21.156;2023-05-28T11:36:13;5.03;;;1.50;;
16979;SDS011;42288;52.182;21.156;2023-05-28T11:38:39;3.25;;;1.58;;
16979;SDS011;42288;52.182;21.156;2023-05-28T11:41:05;2.80;;;1.67;;
16979;SDS011;42288;52.182;21.156;2023-05-28T11:43:31;3.90;;;1.35;;
16979;SDS011;42288;52.182;21.156;2023-05-28T11:45:57;3.08;;;1.20;;
16979;SDS011;42288;52.182;21.156;2023-05-28T11:48:24;2.92;;;1.48;;
16979;SDS011;42288;52.182;21.156;2023-05-28T11:51:01;5.75;;;1.30;;
16979;SDS011;42288;52.182;21.156;2023-05-28T11:53:39;5.13;;;1.20;;
16979;SDS011;42288;52.182;21.156;2023-05-28T11:56:06;5.13;;;1.13;;
16979;SDS011;42288;52.182;21.156;2023-05-28T11:58:33;2.85;;;1.30;;
16979;SDS011;42288;52.182;21.156;2023-05-28T12:01:02;5.57;;;1.33;;
16979;SDS011;42288;52.182;21.156;2023-05-28T12:03:29;4.53;;;1.00;;
16979;SDS011;42288;52.182;21.156;2023-05-28T12:05:55;3.83;;;1.10;;
16979;SDS011;42288;52.182;21.156;2023-05-28T12:08:20;7.53;;;1.30;;
16979;SDS011;42288;52.182;21.156;2023-05-28T12:10:46;4.67;;;1.20;;
16979;SDS011;42288;52.182;21.156;2023-05-28T12:13:12;7.20;;;1.00;;
16979;SDS011;42288;52.182;21.156;2023-05-28T12:15:38;8.80;;;1.50;;
16979;SDS011;42288;52.182;21.156;2023-05-28T12:18:04;8.63;;;1.57;;
16979;SDS011;42288;52.182;21.156;2023-05-28T12:20:41;3.95;;;0.90;;
16979;SDS011;42288;52.182;21.156;2023-05-28T12:23:08;4.00;;;1.10;;
16979;SDS011;42288;52.182;21.156;2023-05-28T12:25:50;7.97;;;1.47;;
16979;SDS011;42288;52.182;21.156;2023-05-28T12:28:20;1.90;;;1.20;;
16979;SDS011;42288;52.182;21.156;2023-05-28T12:30:51;6.20;;;1.30;;
16979;SDS011;42288;52.182;21.156;2023-05-28T12:33:18;4.43;;;1.35;;
16979;SDS011;42288;52.182;21.156;2023-05-28T12:35:45;2.08;;;1.00;;
16979;SDS011;42288;52.182;21.156;2023-05-28T12:38:11;7.50;;;1.50;;
16979;SDS011;42288;52.182;21.156;2023-05-28T12:40:38;3.63;;;1.10;;
16979;SDS011;42288;52.182;21.156;2023-05-28T12:43:03;5.17;;;1.67;;
16979;SDS011;42288;52.182;21.156;2023-05-28T12:45:31;10.43;;;1.63;;
16979;SDS011;42288;52.182;21.156;2023-05-28T12:47:57;6.37;;;1.53;;
16979;SDS011;42288;52.182;21.156;2023-05-28T12:50:22;3.47;;;1.37;;
16979;SDS011;42288;52.182;21.156;2023-05-28T12:52:49;4.57;;;1.50;;
16979;SDS011;42288;52.182;21.156;2023-05-28T12:55:15;7.47;;;1.97;;
16979;SDS011;42288;52.182;21.156;2023-05-28T12:57:41;4.00;;;1.77;;
16979;SDS011;42288;52.182;21.156;2023-05-28T13:00:07;4.70;;;1.67;;
16979;SDS011;42288;52.182;21.156;2023-05-28T13:02:36;4.07;;;1.30;;
16979;SDS011;42288;52.182;21.156;2023-05-28T13:05:03;9.00;;;1.57;;
16979;SDS011;42288;52.182;21.156;2023-05-28T13:07:29;3.50;;;1.13;;
16979;SDS011;42288;52.182;21.156;2023-05-28T13:09:55;6.03;;;1.50;;
16979;SDS011;42288;52.182;21.156;2023-05-28T13:12:21;9.77;;;1.90;;
16979;SDS011;42288;52.182;21.156;2023-05-28T13:14:46;4.50;;;1.40;;
16979;SDS011;42288;52.182;21.156;2023-05-28T13:17:12;4.50;;;1.30;;
16979;SDS011;42288;52.182;21.156;2023-05-28T13:19:37;2.60;;;1.00;;
16979;SDS011;42288;52.182;21.156;2023-05-28T13:22:03;3.80;;;1.37;;
16979;SDS011;42288;52.182;21.156;2023-05-28T13:24:29;5.97;;;1.27;;
16979;SDS011;42288;52.182;21.156;2023-05-28T13:26:54;6.33;;;1.33;;
16979;SDS011;42288;52.182;21.156;2023-05-28T13:29:20;4.33;;;1.50;;
16979;SDS011;42288;52.182;21.156;2023-05-28T13:31:46;4.17;;;1.47;;
16979;SDS011;42288;52.182;21.156;2023-05-28T13:34:11;6.33;;;1.60;;
16979;SDS011;42288;52.182;21.156;2023-05-28T13:36:37;4.90;;;1.30;;
16979;SDS011;42288;52.182;21.156;2023-05-28T13:39:02;3.67;;;1.30;;
16979;SDS011;42288;52.182;21.156;2023-05-28T13:41:29;4.90;;;1.43;;
16979;SDS011;42288;52.182;21.156;2023-05-28T13:43:55;12.63;;;2.00;;
16979;SDS011;42288;52.182;21.156;2023-05-28T13:46:21;5.60;;;1.30;;
16979;SDS011;42288;52.182;21.156;2023-05-28T13:48:50;2.40;;;1.30;;
16979;SDS011;42288;52.182;21.156;2023-05-28T13:51:15;4.07;;;1.30;;
16979;SDS011;42288;52.182;21.156;2023-05-28T13:53:41;4.07;;;1.57;;
16979;SDS011;42288;52.182;21.156;2023-05-28T13:56:10;3.50;;;1.37;;
16979;SDS011;42288;52.182;21.156;2023-05-28T13:58:36;3.70;;;1.30;;
16979;SDS011;42288;52.182;21.156;2023-05-28T14:01:02;3.43;;;1.30;;
16979;SDS011;42288;52.182;21.156;2023-05-28T14:03:27;18.10;;;2.07;;
16979;SDS011;42288;52.182;21.156;2023-05-28T14:05:53;4.93;;;1.30;;
16979;SDS011;42288;52.182;21.156;2023-05-28T14:08:19;2.50;;;1.30;;
16979;SDS011;42288;52.182;21.156;2023-05-28T14:10:44;5.50;;;1.30;;
16979;SDS011;42288;52.182;21.156;2023-05-28T14:13:10;3.37;;;1.40;;
16979;SDS011;42288;52.182;21.156;2023-05-28T14:15:35;7.07;;;1.80;;
16979;SDS011;42288;52.182;21.156;2023-05-28T14:18:01;6.63;;;1.67;;
16979;SDS011;42288;52.182;21.156;2023-05-28T14:20:27;3.77;;;1.23;;
16979;SDS011;42288;52.182;21.156;2023-05-28T14:22:54;5.37;;;1.60;;
16979;SDS011;42288;52.182;21.156;2023-05-28T14:25:20;2.70;;;1.50;;
16979;SDS011;42288;52.182;21.156;2023-05-28T14:27:45;2.87;;;1.30;;
16979;SDS011;42288;52.182;21.156;2023-05-28T14:30:11;4.60;;;1.30;;
16979;SDS011;42288;52.182;21.156;2023-05-28T14:32:36;3.03;;;1.20;;
16979;SDS011;42288;52.182;21.156;2023-05-28T14:35:02;4.23;;;1.33;;
16979;SDS011;42288;52.182;21.156;2023-05-28T14:37:28;4.27;;;1.60;;